createdAt,value
2018-07-26T00:01:41.749Z,23.15
2018-07-26T00:04:10.049Z,23.12
2018-07-26T00:06:38.292Z,23.07
2018-07-26T00:09:09.321Z,23.07
2018-07-26T00:11:38.669Z,23.03
2018-07-26T00:14:06.949Z,23.02
2018-07-26T00:16:35.188Z,22.98
2018-07-26T00:19:03.507Z,22.93
2018-07-26T00:21:31.768Z,22.93
2018-07-26T00:24:00.029Z,22.93
2018-07-26T00:26:28.268Z,22.94
2018-07-26T00:28:56.557Z,22.95
2018-07-26T00:31:24.865Z,22.94
2018-07-26T00:33:53.105Z,22.95
2018-07-26T00:36:21.383Z,22.95
2018-07-26T00:38:49.642Z,22.94
2018-07-26T00:41:17.969Z,22.90
2018-07-26T00:43:46.197Z,22.89
2018-07-26T00:46:14.474Z,22.93
2018-07-26T00:48:42.760Z,22.92
2018-07-26T00:51:11.097Z,22.92
2018-07-26T00:53:39.337Z,22.88
2018-07-26T00:56:07.680Z,22.84
2018-07-26T00:58:35.917Z,22.81
2018-07-26T01:01:04.201Z,22.84
2018-07-26T01:03:32.448Z,22.79
2018-07-26T01:06:00.720Z,22.86
2018-07-26T01:08:28.960Z,22.86
2018-07-26T01:10:57.265Z,22.88
2018-07-26T01:13:25.545Z,22.90
2018-07-26T01:15:53.825Z,22.90
2018-07-26T01:18:22.229Z,22.93
2018-07-26T01:20:50.713Z,22.89
2018-07-26T01:23:18.957Z,22.80
2018-07-26T01:25:47.204Z,22.73
2018-07-26T01:28:15.505Z,22.74
2018-07-26T01:30:43.939Z,22.73
2018-07-26T01:33:12.253Z,22.74
2018-07-26T01:35:41.532Z,22.69
2018-07-26T01:38:09.864Z,22.71
2018-07-26T01:40:38.272Z,22.66
2018-07-26T01:43:17.925Z,22.62
2018-07-26T01:45:46.177Z,22.54
2018-07-26T01:48:14.453Z,22.50
2018-07-26T01:50:42.705Z,22.45
2018-07-26T01:53:10.973Z,22.45
2018-07-26T01:55:39.225Z,22.45
2018-07-26T01:58:07.500Z,22.51
2018-07-26T02:00:35.765Z,22.56
2018-07-26T02:03:04.053Z,22.55
2018-07-26T02:05:32.353Z,22.58
2018-07-26T02:08:00.639Z,22.62
2018-07-26T02:10:28.893Z,22.55
2018-07-26T02:12:57.177Z,22.51
2018-07-26T02:15:25.439Z,22.52
2018-07-26T02:17:53.697Z,22.53
2018-07-26T02:20:22.017Z,22.56
2018-07-26T02:22:50.233Z,22.56
2018-07-26T02:25:18.505Z,22.48
2018-07-26T02:27:46.756Z,22.53
2018-07-26T02:30:15.057Z,22.56
2018-07-26T02:32:43.306Z,22.54
2018-07-26T02:35:11.569Z,22.54
2018-07-26T02:37:39.809Z,22.57
2018-07-26T02:40:08.081Z,22.50
2018-07-26T02:42:36.346Z,22.46
2018-07-26T02:45:04.674Z,22.44
2018-07-26T02:47:32.950Z,22.53
2018-07-26T02:50:01.243Z,22.51
2018-07-26T02:52:29.498Z,22.42
2018-07-26T02:54:57.777Z,22.41
2018-07-26T02:57:26.028Z,22.37
2018-07-26T02:59:54.304Z,22.40
2018-07-26T03:02:22.560Z,22.33
2018-07-26T03:04:50.854Z,22.33
2018-07-26T03:07:19.559Z,22.29
2018-07-26T03:09:47.828Z,22.23
2018-07-26T03:12:16.101Z,22.24
2018-07-26T03:14:45.562Z,22.14
2018-07-26T03:17:15.246Z,22.15
2018-07-26T03:19:44.561Z,22.20
2018-07-26T03:22:12.870Z,22.21
2018-07-26T03:24:41.136Z,22.11
2018-07-26T03:27:09.533Z,22.14
2018-07-26T03:29:37.816Z,22.25
2018-07-26T03:32:06.361Z,22.23
2018-07-26T03:34:34.636Z,22.56
2018-07-26T03:37:02.973Z,22.44
2018-07-26T03:39:31.254Z,22.41
2018-07-26T03:41:59.551Z,22.41
2018-07-26T03:44:27.822Z,22.43
2018-07-26T03:46:56.116Z,22.42
2018-07-26T03:49:24.394Z,22.46
2018-07-26T03:51:52.805Z,22.43
2018-07-26T03:54:21.101Z,22.42
2018-07-26T03:56:49.394Z,22.50
2018-07-26T03:59:17.653Z,22.50
2018-07-26T04:01:45.996Z,22.57
2018-07-26T04:04:14.265Z,22.68
2018-07-26T04:06:42.581Z,22.62
2018-07-26T04:09:12.872Z,22.65
2018-07-26T04:11:41.859Z,22.72
2018-07-26T04:14:10.245Z,22.78
2018-07-26T04:16:38.976Z,22.88
2018-07-26T04:19:08.038Z,22.84
2018-07-26T04:21:36.373Z,22.92
2018-07-26T04:24:04.679Z,22.96
2018-07-26T04:26:32.953Z,23.04
2018-07-26T04:29:01.313Z,23.11
2018-07-26T04:31:29.649Z,23.17
2018-07-26T04:33:58.054Z,23.27
2018-07-26T04:36:26.304Z,23.39
2018-07-26T04:38:54.591Z,23.37
2018-07-26T04:41:22.880Z,23.34
2018-07-26T04:43:51.156Z,23.50
2018-07-26T04:46:19.405Z,23.59
2018-07-26T04:48:47.772Z,23.69
2018-07-26T04:51:16.070Z,23.71
2018-07-26T04:53:44.369Z,23.71
2018-07-26T04:56:12.644Z,23.93
2018-07-26T04:58:41.420Z,23.86
2018-07-26T05:01:09.701Z,23.79
2018-07-26T05:03:37.960Z,23.98
2018-07-26T05:06:06.252Z,24.10
2018-07-26T05:08:34.524Z,24.30
2018-07-26T05:11:02.846Z,24.43
2018-07-26T05:13:31.104Z,24.47
2018-07-26T05:15:59.405Z,24.35
2018-07-26T05:18:27.697Z,24.50
2018-07-26T05:20:55.965Z,24.67
2018-07-26T05:23:24.221Z,24.62
2018-07-26T05:25:52.513Z,24.53
2018-07-26T05:28:20.873Z,24.50
2018-07-26T05:30:49.165Z,24.64
2018-07-26T05:33:17.428Z,24.69
2018-07-26T05:35:45.728Z,24.74
2018-07-26T05:38:14.000Z,24.97
2018-07-26T05:40:42.317Z,24.88
2018-07-26T05:43:10.645Z,25.15
2018-07-26T05:45:38.885Z,25.01
2018-07-26T05:48:07.189Z,25.29
2018-07-26T05:50:35.485Z,25.35
2018-07-26T05:53:03.897Z,25.54
2018-07-26T05:55:32.199Z,25.77
2018-07-26T05:58:00.526Z,25.72
2018-07-26T06:00:28.785Z,25.54
2018-07-26T06:02:57.089Z,25.64
2018-07-26T06:05:25.369Z,25.71
2018-07-26T06:07:53.697Z,25.94
2018-07-26T06:10:21.979Z,26.09
2018-07-26T06:12:50.265Z,26.04
2018-07-26T06:15:18.544Z,26.02
2018-07-26T06:17:46.852Z,26.37
2018-07-26T06:20:15.125Z,26.46
2018-07-26T06:22:43.430Z,26.32
2018-07-26T06:25:11.693Z,26.57
2018-07-26T06:27:40.037Z,26.65
2018-07-26T06:30:10.921Z,26.71
2018-07-26T06:32:39.244Z,26.53
2018-07-26T06:35:08.297Z,26.67
2018-07-26T06:37:36.701Z,26.83
2018-07-26T06:40:05.600Z,26.85
2018-07-26T06:42:33.895Z,26.92
2018-07-26T06:45:02.171Z,26.94
2018-07-26T06:47:30.485Z,27.14
2018-07-26T06:49:58.769Z,27.03
2018-07-26T06:52:27.149Z,27.05
2018-07-26T06:54:55.433Z,27.29
2018-07-26T06:57:23.737Z,27.50
2018-07-26T06:59:52.212Z,27.18
2018-07-26T07:02:20.481Z,27.08
2018-07-26T07:04:48.850Z,27.10
2018-07-26T07:07:17.116Z,27.26
2018-07-26T07:09:45.653Z,27.12
2018-07-26T07:12:13.921Z,27.13
2018-07-26T07:14:42.205Z,27.13
2018-07-26T07:17:10.673Z,27.31
2018-07-26T07:19:39.005Z,27.30
2018-07-26T07:22:08.317Z,27.25
2018-07-26T07:24:36.656Z,27.26
2018-07-26T07:27:05.004Z,27.64
2018-07-26T07:29:33.310Z,27.81
2018-07-26T07:32:01.670Z,27.68
2018-07-26T07:34:29.955Z,27.88
2018-07-26T07:36:58.221Z,27.77
2018-07-26T07:39:26.511Z,27.78
2018-07-26T07:41:54.777Z,27.95
2018-07-26T07:44:23.060Z,27.73
2018-07-26T07:46:51.309Z,27.98
2018-07-26T07:49:19.733Z,28.06
2018-07-26T07:51:48.094Z,28.20
2018-07-26T07:54:16.361Z,28.19
2018-07-26T07:56:44.653Z,28.15
2018-07-26T07:59:12.944Z,28.16
2018-07-26T08:01:41.228Z,28.06
2018-07-26T08:04:09.504Z,28.24
2018-07-26T08:06:37.810Z,28.73
2018-07-26T08:09:09.028Z,28.85
2018-07-26T08:11:37.319Z,28.87
2018-07-26T08:14:06.204Z,28.56
2018-07-26T08:16:34.517Z,28.73
2018-07-26T08:19:02.808Z,28.82
2018-07-26T08:21:31.093Z,28.87
2018-07-26T08:23:59.401Z,28.76
2018-07-26T08:26:27.769Z,28.94
2018-07-26T08:28:56.116Z,28.57
2018-07-26T08:31:24.397Z,28.72
2018-07-26T08:33:52.676Z,28.80
2018-07-26T08:36:20.979Z,28.83
2018-07-26T08:38:49.256Z,28.90
2018-07-26T08:41:17.544Z,29.08
2018-07-26T08:43:45.801Z,29.09
2018-07-26T08:46:14.093Z,28.77
2018-07-26T08:48:42.408Z,28.89
2018-07-26T08:51:10.669Z,28.86
2018-07-26T08:53:38.945Z,28.73
2018-07-26T08:56:07.207Z,28.98
2018-07-26T08:58:35.594Z,29.17
2018-07-26T09:01:03.962Z,29.65
2018-07-26T09:03:32.241Z,29.57
2018-07-26T09:06:00.493Z,29.62
2018-07-26T09:08:29.213Z,29.62
2018-07-26T09:10:57.831Z,29.53
2018-07-26T09:13:26.096Z,29.62
2018-07-26T09:15:54.388Z,29.63
2018-07-26T09:18:22.670Z,29.77
2018-07-26T09:20:51.036Z,30.13
2018-07-26T09:23:19.484Z,29.79
2018-07-26T09:25:47.761Z,29.99
2018-07-26T09:28:16.053Z,30.09
2018-07-26T09:30:44.349Z,30.13
2018-07-26T09:33:12.713Z,30.26
2018-07-26T09:35:40.969Z,30.31
2018-07-26T09:38:09.224Z,30.11
2018-07-26T09:40:37.541Z,30.16
2018-07-26T09:43:05.900Z,30.12
2018-07-26T09:45:34.205Z,30.33
2018-07-26T09:48:02.472Z,30.32
2018-07-26T09:50:30.765Z,30.11
2018-07-26T09:52:59.053Z,30.11
2018-07-26T09:55:27.335Z,30.35
2018-07-26T09:57:55.834Z,30.74
2018-07-26T10:00:29.408Z,30.58
2018-07-26T10:02:57.776Z,30.83
2018-07-26T10:05:26.060Z,30.30
2018-07-26T10:07:54.313Z,30.37
2018-07-26T10:10:22.616Z,30.41
2018-07-26T10:12:51.023Z,30.28
2018-07-26T10:15:19.321Z,30.38
2018-07-26T10:17:47.659Z,30.37
2018-07-26T10:20:15.980Z,30.13
2018-07-26T10:22:44.402Z,30.45
2018-07-26T10:25:12.713Z,30.57
2018-07-26T10:27:41.064Z,30.60
2018-07-26T10:30:09.765Z,30.51
2018-07-26T10:32:38.084Z,30.48
2018-07-26T10:35:06.390Z,30.40
2018-07-26T10:37:34.685Z,30.34
2018-07-26T10:40:02.968Z,30.41
2018-07-26T10:42:31.363Z,30.31
2018-07-26T10:44:59.618Z,29.97
2018-07-26T10:47:27.923Z,30.21
2018-07-26T10:49:56.275Z,30.42
2018-07-26T10:52:24.694Z,30.32
2018-07-26T10:54:52.957Z,30.42
2018-07-26T10:57:21.317Z,30.30
2018-07-26T10:59:49.624Z,30.22
2018-07-26T11:02:17.912Z,30.29
2018-07-26T11:04:46.168Z,30.48
2018-07-26T11:07:14.445Z,30.31
2018-07-26T11:09:42.767Z,30.24
2018-07-26T11:12:11.041Z,30.01
2018-07-26T11:14:39.296Z,30.07
2018-07-26T11:17:07.588Z,30.22
2018-07-26T11:19:35.845Z,30.20
2018-07-26T11:22:04.181Z,30.06
2018-07-26T11:24:32.462Z,30.08
2018-07-26T11:27:00.760Z,30.40
2018-07-26T11:29:29.166Z,30.43
2018-07-26T11:31:57.454Z,30.21
2018-07-26T11:34:25.713Z,30.17
2018-07-26T11:36:54.007Z,30.51
2018-07-26T11:39:22.284Z,30.19
2018-07-26T11:41:50.645Z,29.85
2018-07-26T11:44:18.977Z,30.16
2018-07-26T11:46:47.269Z,30.21
2018-07-26T11:49:15.573Z,30.02
2018-07-26T11:51:43.828Z,29.67
2018-07-26T11:54:12.182Z,29.69
2018-07-26T11:56:40.517Z,29.76
2018-07-26T11:59:08.799Z,29.45
2018-07-26T12:01:37.075Z,29.89
2018-07-26T12:04:05.345Z,29.89
2018-07-26T12:06:33.596Z,29.77
2018-07-26T12:09:01.894Z,30.01
2018-07-26T12:11:30.145Z,29.33
2018-07-26T12:13:58.416Z,29.27
2018-07-26T12:16:26.754Z,28.91
2018-07-26T12:18:55.013Z,28.68
2018-07-26T12:21:23.293Z,28.56
2018-07-26T12:23:51.560Z,28.68
2018-07-26T12:26:19.833Z,28.37
2018-07-26T12:28:48.085Z,28.28
2018-07-26T12:31:16.400Z,28.26
2018-07-26T12:33:44.661Z,28.43
2018-07-26T12:36:13.819Z,28.58
2018-07-26T12:38:42.083Z,28.46
2018-07-26T12:41:10.499Z,28.67
2018-07-26T12:43:39.073Z,28.93
2018-07-26T12:46:07.326Z,29.20
2018-07-26T12:48:35.637Z,29.53
2018-07-26T12:51:03.965Z,29.75
2018-07-26T12:53:32.257Z,30.05
2018-07-26T12:56:00.565Z,30.31
2018-07-26T12:58:28.809Z,30.51
2018-07-26T13:00:57.094Z,30.71
2018-07-26T13:03:25.402Z,30.83
2018-07-26T13:05:53.746Z,30.98
2018-07-26T13:08:22.021Z,31.21
2018-07-26T13:10:50.357Z,31.38
2018-07-26T13:13:18.655Z,31.51
2018-07-26T13:15:46.965Z,31.53
2018-07-26T13:18:15.381Z,31.67
2018-07-26T13:20:43.708Z,31.69
2018-07-26T13:23:11.976Z,31.99
2018-07-26T13:25:40.272Z,32.07
2018-07-26T13:28:08.597Z,32.26
2018-07-26T13:30:36.923Z,32.09
2018-07-26T13:33:05.253Z,31.93
2018-07-26T13:35:33.534Z,32.02
2018-07-26T13:38:01.912Z,32.36
2018-07-26T13:40:31.137Z,32.44
2018-07-26T13:42:59.624Z,32.85
2018-07-26T13:45:27.971Z,33.36
2018-07-26T13:47:56.333Z,33.62
2018-07-26T13:50:24.611Z,33.36
2018-07-26T13:52:52.953Z,32.97
2018-07-26T13:55:21.221Z,32.81
2018-07-26T13:57:49.537Z,33.11
2018-07-26T14:00:17.817Z,33.30
2018-07-26T14:02:46.103Z,33.21
2018-07-26T14:05:14.407Z,33.13
2018-07-26T14:07:42.703Z,33.48
2018-07-26T14:10:11.030Z,34.26
2018-07-26T14:12:39.734Z,36.14
2018-07-26T14:15:09.866Z,35.78
2018-07-26T14:17:38.551Z,34.97
2018-07-26T14:20:08.529Z,34.48
2018-07-26T14:22:36.814Z,38.07
2018-07-26T14:25:05.944Z,42.31
2018-07-26T14:27:35.075Z,41.81
2018-07-26T14:30:03.537Z,41.29
2018-07-26T14:32:31.836Z,42.40
2018-07-26T14:35:00.626Z,42.18
2018-07-26T14:37:28.892Z,40.65
2018-07-26T14:39:57.209Z,41.34
2018-07-26T14:42:25.513Z,42.73
2018-07-26T14:44:53.863Z,41.11
2018-07-26T14:47:22.129Z,39.88
2018-07-26T14:49:50.420Z,38.30
2018-07-26T14:52:18.712Z,39.11
2018-07-26T14:54:47.046Z,39.15
2018-07-26T14:57:15.318Z,41.11
2018-07-26T14:59:43.580Z,43.43
2018-07-26T15:02:12.405Z,45.52
2018-07-26T15:04:40.693Z,46.35
2018-07-26T15:07:09.069Z,44.47
2018-07-26T15:09:37.324Z,41.76
2018-07-26T15:12:05.682Z,41.17
2018-07-26T15:14:33.948Z,39.87
2018-07-26T15:17:02.241Z,37.39
2018-07-26T15:19:30.516Z,36.84
2018-07-26T15:21:58.805Z,39.03
2018-07-26T15:24:28.292Z,40.94
2018-07-26T15:26:56.585Z,42.02
2018-07-26T15:29:24.949Z,45.12
2018-07-26T15:31:53.260Z,45.05
2018-07-26T15:34:21.513Z,44.89
2018-07-26T15:36:49.801Z,44.26
2018-07-26T15:39:18.053Z,46.40
2018-07-26T15:41:46.385Z,44.77
2018-07-26T15:44:16.085Z,44.95
2018-07-26T15:46:45.489Z,44.06
2018-07-26T15:49:13.773Z,44.74
2018-07-26T15:51:43.192Z,44.93
2018-07-26T15:54:12.549Z,41.80
2018-07-26T15:56:40.873Z,42.64
2018-07-26T15:59:09.170Z,43.96
2018-07-26T16:01:37.497Z,43.60
2018-07-26T16:04:07.002Z,42.93
2018-07-26T16:06:35.269Z,43.18
2018-07-26T16:09:03.977Z,43.88
2018-07-26T16:11:32.249Z,43.45
2018-07-26T16:14:00.694Z,44.33
2018-07-26T16:16:28.961Z,44.13
2018-07-26T16:18:57.271Z,44.04
2018-07-26T16:21:25.552Z,43.72
2018-07-26T16:23:53.913Z,43.19
2018-07-26T16:26:22.159Z,42.23
2018-07-26T16:28:51.611Z,42.68
2018-07-26T16:31:19.901Z,43.00
2018-07-26T16:33:48.212Z,43.22
2018-07-26T16:36:16.725Z,42.10
2018-07-26T16:38:45.050Z,42.77
2018-07-26T16:41:13.320Z,43.27
2018-07-26T16:43:41.615Z,43.67
2018-07-26T16:46:09.949Z,43.57
2018-07-26T16:48:39.265Z,43.17
2018-07-26T16:51:07.577Z,43.69
2018-07-26T16:53:39.021Z,43.28
2018-07-26T16:56:08.532Z,43.72
2018-07-26T16:58:36.975Z,43.50
2018-07-26T17:01:08.845Z,42.53
2018-07-26T17:03:38.210Z,42.72
2018-07-26T17:06:06.541Z,42.48
2018-07-26T17:08:34.830Z,42.43
2018-07-26T17:11:06.014Z,42.14
2018-07-26T17:13:34.492Z,41.61
2018-07-26T17:16:06.213Z,41.38
2018-07-26T17:18:34.530Z,40.74
2018-07-26T17:21:04.961Z,41.06
2018-07-26T17:23:33.501Z,39.68
2018-07-26T17:26:01.925Z,40.17
2018-07-26T17:28:30.248Z,38.76
2018-07-26T17:30:58.607Z,36.55
2018-07-26T17:33:28.878Z,34.92
2018-07-26T17:35:58.183Z,34.11
2018-07-26T17:38:26.451Z,33.35
2018-07-26T17:40:54.973Z,32.47
2018-07-26T17:43:23.630Z,32.39
2018-07-26T17:45:53.053Z,32.18
2018-07-26T17:48:22.465Z,31.74
2018-07-26T17:50:51.882Z,31.24
2018-07-26T17:53:20.191Z,31.25
2018-07-26T17:55:49.477Z,31.11
2018-07-26T17:58:17.782Z,30.96
2018-07-26T18:00:46.069Z,30.95
2018-07-26T18:03:14.388Z,30.88
2018-07-26T18:05:42.655Z,30.90
2018-07-26T18:08:10.952Z,30.48
2018-07-26T18:10:39.981Z,30.38
2018-07-26T18:13:08.290Z,30.29
2018-07-26T18:15:36.590Z,30.25
2018-07-26T18:18:04.926Z,30.13
2018-07-26T18:20:33.456Z,30.02
2018-07-26T18:23:01.774Z,30.06
2018-07-26T18:25:30.130Z,30.01
2018-07-26T18:27:58.406Z,29.79
2018-07-26T18:30:26.701Z,29.89
2018-07-26T18:32:55.101Z,29.86
2018-07-26T18:35:23.373Z,29.45
2018-07-26T18:37:51.881Z,29.56
2018-07-26T18:40:20.170Z,29.56
2018-07-26T18:42:48.489Z,29.55
2018-07-26T18:45:16.829Z,29.40
2018-07-26T18:47:45.169Z,29.12
2018-07-26T18:50:13.445Z,29.12
2018-07-26T18:52:41.726Z,29.17
2018-07-26T18:55:10.602Z,29.06
2018-07-26T18:57:39.568Z,29.08
2018-07-26T19:00:10.026Z,28.97
2018-07-26T19:02:38.281Z,28.89
2018-07-26T19:05:07.500Z,28.87
2018-07-26T19:07:37.161Z,29.29
2018-07-26T19:10:07.529Z,28.97
2018-07-26T19:12:36.801Z,28.79
2018-07-26T19:15:06.904Z,28.69
2018-07-26T19:17:35.305Z,28.57
2018-07-26T19:20:03.625Z,28.44
2018-07-26T19:22:31.893Z,28.40
2018-07-26T19:25:00.181Z,28.23
2018-07-26T19:27:28.442Z,28.22
2018-07-26T19:29:56.809Z,28.09
2018-07-26T19:32:25.072Z,27.94
2018-07-26T19:34:53.427Z,27.81
2018-07-26T19:37:21.706Z,27.73
2018-07-26T19:39:53.105Z,27.68
2018-07-26T19:42:21.370Z,27.63
2018-07-26T19:44:49.713Z,27.58
2018-07-26T19:47:17.986Z,27.54
2018-07-26T19:49:46.281Z,27.49
2018-07-26T19:52:14.649Z,27.43
2018-07-26T19:54:42.974Z,27.41
2018-07-26T19:57:11.737Z,27.39
2018-07-26T19:59:40.013Z,27.23
2018-07-26T20:02:08.475Z,27.16
2018-07-26T20:04:36.976Z,27.11
2018-07-26T20:07:05.273Z,27.01
2018-07-26T20:09:33.673Z,27.04
2018-07-26T20:12:02.230Z,26.91
2018-07-26T20:14:30.510Z,26.76
2018-07-26T20:16:58.868Z,26.69
2018-07-26T20:19:27.136Z,26.68
2018-07-26T20:21:55.409Z,26.63
2018-07-26T20:24:23.733Z,26.56
2018-07-26T20:26:52.104Z,26.47
2018-07-26T20:29:20.338Z,26.44
2018-07-26T20:31:48.688Z,26.41
2018-07-26T20:34:16.974Z,26.40
2018-07-26T20:36:45.254Z,26.38
2018-07-26T20:39:15.552Z,26.32
2018-07-26T20:41:44.901Z,26.28
2018-07-26T20:44:13.242Z,26.31
2018-07-26T20:46:41.498Z,26.23
2018-07-26T20:49:10.053Z,26.16
2018-07-26T20:51:38.504Z,26.06
2018-07-26T20:54:06.977Z,26.02
2018-07-26T20:56:35.502Z,26.01
2018-07-26T20:59:03.852Z,26.04
2018-07-26T21:01:32.141Z,26.01
2018-07-26T21:04:00.474Z,25.98
2018-07-26T21:06:28.749Z,25.94
2018-07-26T21:08:57.113Z,25.83
2018-07-26T21:11:25.433Z,25.81
2018-07-26T21:13:53.755Z,25.71
2018-07-26T21:16:22.082Z,25.59
2018-07-26T21:18:50.405Z,25.59
2018-07-26T21:21:18.716Z,25.58
2018-07-26T21:23:47.198Z,25.43
2018-07-26T21:26:15.510Z,25.43
2018-07-26T21:28:43.893Z,25.37
2018-07-26T21:31:12.275Z,25.30
2018-07-26T21:33:40.570Z,25.33
2018-07-26T21:36:08.860Z,25.29
2018-07-26T21:38:37.241Z,25.21
2018-07-26T21:41:05.541Z,25.24
2018-07-26T21:43:33.828Z,25.17
2018-07-26T21:46:02.137Z,25.13
2018-07-26T21:48:31.492Z,25.09
2018-07-26T21:50:59.789Z,25.04
2018-07-26T21:53:28.138Z,24.88
2018-07-26T21:55:56.457Z,24.82
2018-07-26T21:58:24.748Z,24.78
2018-07-26T22:00:57.517Z,24.78
2018-07-26T22:03:26.890Z,24.75
2018-07-26T22:05:55.190Z,24.79
2018-07-26T22:08:23.525Z,24.71
2018-07-26T22:10:51.845Z,24.68
2018-07-26T22:13:20.777Z,24.67
2018-07-26T22:15:50.246Z,24.65
2018-07-26T22:18:18.542Z,24.58
2018-07-26T22:20:46.865Z,24.48
2018-07-26T22:23:15.241Z,24.53
2018-07-26T22:25:48.517Z,24.49
2018-07-26T22:28:17.328Z,24.45
2018-07-26T22:30:46.089Z,24.43
2018-07-26T22:33:14.477Z,24.34
2018-07-26T22:35:43.486Z,24.28
2018-07-26T22:38:12.614Z,24.23
2018-07-26T22:40:41.917Z,24.22
2018-07-26T22:43:10.233Z,24.24
2018-07-26T22:45:39.049Z,24.17
2018-07-26T22:48:07.705Z,24.21
2018-07-26T22:50:36.124Z,24.14
2018-07-26T22:53:04.429Z,24.07
2018-07-26T22:55:32.729Z,24.02
2018-07-26T22:58:01.013Z,24.00
2018-07-26T23:00:29.533Z,24.05
2018-07-26T23:02:57.881Z,24.05
2018-07-26T23:05:26.157Z,24.03
2018-07-26T23:07:54.509Z,23.97
2018-07-26T23:10:22.773Z,23.98
2018-07-26T23:12:51.074Z,23.86
2018-07-26T23:15:19.334Z,23.78
2018-07-26T23:17:47.645Z,23.75
2018-07-26T23:20:15.966Z,23.71
2018-07-26T23:22:44.489Z,23.70
2018-07-26T23:25:12.867Z,23.56
2018-07-26T23:27:41.143Z,23.57
2018-07-26T23:30:12.694Z,23.59
2018-07-26T23:32:41.242Z,23.55
2018-07-26T23:35:09.917Z,23.57
2018-07-26T23:37:38.173Z,23.52
2018-07-26T23:40:08.259Z,23.59
2018-07-26T23:42:36.553Z,23.42
2018-07-26T23:45:05.378Z,23.34
2018-07-26T23:47:33.665Z,23.30
2018-07-26T23:50:01.963Z,23.30
2018-07-26T23:52:30.791Z,23.30
2018-07-26T23:54:59.313Z,23.27
2018-07-26T23:57:27.597Z,23.31
2018-07-26T23:59:55.878Z,23.28
